sensor_id;sensor_type;location;lat;lon;timestamp;P1;durP1;ratioP1;P2;durP2;ratioP2
56911;SDS011;42800;53.928;27.662;2022-10-18T00:01:07;29.85;;;16.83;;
56911;SDS011;42800;53.928;27.662;2022-10-18T00:03:34;31.35;;;16.33;;
56911;SDS011;42800;53.928;27.662;2022-10-18T00:06:01;29.95;;;16.55;;
56911;SDS011;42800;53.928;27.662;2022-10-18T00:08:27;28.33;;;17.33;;
56911;SDS011;42800;53.928;27.662;2022-10-18T00:10:54;29.73;;;16.55;;
56911;SDS011;42800;53.928;27.662;2022-10-18T00:13:20;34.85;;;17.20;;
56911;SDS011;42800;53.928;27.662;2022-10-18T00:15:47;35.13;;;18.58;;
56911;SDS011;42800;53.928;27.662;2022-10-18T00:18:15;34.35;;;17.88;;
56911;SDS011;42800;53.928;27.662;2022-10-18T00:20:41;33.25;;;17.20;;
56911;SDS011;42800;53.928;27.662;2022-10-18T00:23:07;34.47;;;17.92;;
56911;SDS011;42800;53.928;27.662;2022-10-18T00:25:33;35.22;;;17.75;;
56911;SDS011;42800;53.928;27.662;2022-10-18T00:28:00;34.45;;;16.77;;
56911;SDS011;42800;53.928;27.662;2022-10-18T00:30:26;28.30;;;16.90;;
56911;SDS011;42800;53.928;27.662;2022-10-18T00:32:52;31.63;;;17.38;;
56911;SDS011;42800;53.928;27.662;2022-10-18T00:35:19;31.33;;;16.83;;
56911;SDS011;42800;53.928;27.662;2022-10-18T00:37:45;35.40;;;17.77;;
56911;SDS011;42800;53.928;27.662;2022-10-18T00:40:11;33.33;;;18.33;;
56911;SDS011;42800;53.928;27.662;2022-10-18T00:42:37;34.13;;;18.63;;
56911;SDS011;42800;53.928;27.662;2022-10-18T00:45:14;31.23;;;18.38;;
56911;SDS011;42800;53.928;27.662;2022-10-18T00:47:44;32.40;;;18.40;;
56911;SDS011;42800;53.928;27.662;2022-10-18T00:50:14;32.55;;;18.65;;
56911;SDS011;42800;53.928;27.662;2022-10-18T00:52:42;29.67;;;18.02;;
56911;SDS011;42800;53.928;27.662;2022-10-18T00:55:12;30.73;;;18.60;;
56911;SDS011;42800;53.928;27.662;2022-10-18T00:57:39;31.45;;;18.08;;
56911;SDS011;42800;53.928;27.662;2022-10-18T01:00:08;33.15;;;18.33;;
56911;SDS011;42800;53.928;27.662;2022-10-18T01:02:35;32.45;;;17.88;;
56911;SDS011;42800;53.928;27.662;2022-10-18T01:05:02;24.95;;;15.93;;
56911;SDS011;42800;53.928;27.662;2022-10-18T01:07:33;30.42;;;16.25;;
56911;SDS011;42800;53.928;27.662;2022-10-18T01:10:21;28.38;;;17.40;;
56911;SDS011;42800;53.928;27.662;2022-10-18T01:13:05;30.42;;;17.15;;
56911;SDS011;42800;53.928;27.662;2022-10-18T01:15:48;26.67;;;16.45;;
56911;SDS011;42800;53.928;27.662;2022-10-18T01:18:22;31.35;;;15.70;;
56911;SDS011;42800;53.928;27.662;2022-10-18T01:20:58;27.83;;;15.68;;
56911;SDS011;42800;53.928;27.662;2022-10-18T01:24:00;38.67;;;18.35;;
56911;SDS011;42800;53.928;27.662;2022-10-18T01:26:53;32.65;;;17.15;;
56911;SDS011;42800;53.928;27.662;2022-10-18T01:29:40;31.48;;;16.92;;
56911;SDS011;42800;53.928;27.662;2022-10-18T01:32:16;29.17;;;16.55;;
56911;SDS011;42800;53.928;27.662;2022-10-18T01:34:46;33.40;;;17.75;;
56911;SDS011;42800;53.928;27.662;2022-10-18T01:37:17;27.05;;;16.75;;
56911;SDS011;42800;53.928;27.662;2022-10-18T01:39:46;31.27;;;17.45;;
56911;SDS011;42800;53.928;27.662;2022-10-18T01:42:13;31.30;;;18.45;;
56911;SDS011;42800;53.928;27.662;2022-10-18T01:44:45;32.88;;;18.80;;
56911;SDS011;42800;53.928;27.662;2022-10-18T01:47:13;37.35;;;17.67;;
56911;SDS011;42800;53.928;27.662;2022-10-18T01:49:40;35.13;;;17.77;;
56911;SDS011;42800;53.928;27.662;2022-10-18T01:52:07;33.40;;;17.85;;
56911;SDS011;42800;53.928;27.662;2022-10-18T01:54:37;34.22;;;18.02;;
56911;SDS011;42800;53.928;27.662;2022-10-18T01:57:08;35.83;;;19.25;;
56911;SDS011;42800;53.928;27.662;2022-10-18T01:59:45;33.45;;;18.10;;
56911;SDS011;42800;53.928;27.662;2022-10-18T02:04:49;37.20;;;18.42;;
56911;SDS011;42800;53.928;27.662;2022-10-18T02:07:22;31.40;;;17.52;;
56911;SDS011;42800;53.928;27.662;2022-10-18T02:09:57;33.63;;;18.13;;
56911;SDS011;42800;53.928;27.662;2022-10-18T02:12:30;33.45;;;19.17;;
56911;SDS011;42800;53.928;27.662;2022-10-18T02:14:58;31.13;;;17.23;;
56911;SDS011;42800;53.928;27.662;2022-10-18T02:17:27;33.83;;;17.92;;
56911;SDS011;42800;53.928;27.662;2022-10-18T02:19:55;31.60;;;16.88;;
56911;SDS011;42800;53.928;27.662;2022-10-18T02:22:23;27.88;;;15.77;;
56911;SDS011;42800;53.928;27.662;2022-10-18T02:24:53;29.55;;;15.95;;
56911;SDS011;42800;53.928;27.662;2022-10-18T02:27:22;36.92;;;16.40;;
56911;SDS011;42800;53.928;27.662;2022-10-18T02:29:48;35.35;;;17.25;;
56911;SDS011;42800;53.928;27.662;2022-10-18T02:32:16;31.58;;;17.38;;
56911;SDS011;42800;53.928;27.662;2022-10-18T02:37:21;30.08;;;15.63;;
56911;SDS011;42800;53.928;27.662;2022-10-18T02:39:49;31.67;;;16.95;;
56911;SDS011;42800;53.928;27.662;2022-10-18T02:42:16;28.00;;;16.55;;
56911;SDS011;42800;53.928;27.662;2022-10-18T02:44:42;37.72;;;16.92;;
56911;SDS011;42800;53.928;27.662;2022-10-18T02:47:09;33.45;;;17.75;;
56911;SDS011;42800;53.928;27.662;2022-10-18T02:49:36;34.33;;;16.38;;
56911;SDS011;42800;53.928;27.662;2022-10-18T02:52:02;28.88;;;16.75;;
56911;SDS011;42800;53.928;27.662;2022-10-18T02:54:29;32.30;;;28.02;;
56911;SDS011;42800;53.928;27.662;2022-10-18T02:56:55;32.58;;;17.10;;
56911;SDS011;42800;53.928;27.662;2022-10-18T02:59:22;30.67;;;17.40;;
56911;SDS011;42800;53.928;27.662;2022-10-18T03:01:48;29.48;;;16.67;;
56911;SDS011;42800;53.928;27.662;2022-10-18T03:04:14;33.13;;;18.48;;
56911;SDS011;42800;53.928;27.662;2022-10-18T03:06:40;26.80;;;15.93;;
56911;SDS011;42800;53.928;27.662;2022-10-18T03:09:07;33.30;;;17.80;;
56911;SDS011;42800;53.928;27.662;2022-10-18T03:11:33;30.58;;;16.33;;
56911;SDS011;42800;53.928;27.662;2022-10-18T03:14:00;28.75;;;16.50;;
56911;SDS011;42800;53.928;27.662;2022-10-18T03:16:26;31.83;;;16.88;;
56911;SDS011;42800;53.928;27.662;2022-10-18T03:18:52;29.13;;;16.65;;
56911;SDS011;42800;53.928;27.662;2022-10-18T03:21:18;31.80;;;15.85;;
56911;SDS011;42800;53.928;27.662;2022-10-18T03:23:45;29.40;;;15.07;;
56911;SDS011;42800;53.928;27.662;2022-10-18T03:26:11;26.25;;;15.35;;
56911;SDS011;42800;53.928;27.662;2022-10-18T03:28:38;28.55;;;15.82;;
56911;SDS011;42800;53.928;27.662;2022-10-18T03:31:04;28.90;;;14.07;;
56911;SDS011;42800;53.928;27.662;2022-10-18T03:33:31;31.70;;;14.88;;
56911;SDS011;42800;53.928;27.662;2022-10-18T03:35:58;27.27;;;14.38;;
56911;SDS011;42800;53.928;27.662;2022-10-18T03:38:24;24.02;;;14.50;;
56911;SDS011;42800;53.928;27.662;2022-10-18T03:40:51;25.20;;;15.07;;
56911;SDS011;42800;53.928;27.662;2022-10-18T03:43:17;28.10;;;14.75;;
56911;SDS011;42800;53.928;27.662;2022-10-18T03:45:44;30.67;;;14.35;;
56911;SDS011;42800;53.928;27.662;2022-10-18T03:48:10;23.38;;;14.43;;
56911;SDS011;42800;53.928;27.662;2022-10-18T03:50:36;23.40;;;13.90;;
56911;SDS011;42800;53.928;27.662;2022-10-18T03:53:03;28.45;;;15.20;;
56911;SDS011;42800;53.928;27.662;2022-10-18T03:55:29;24.58;;;13.82;;
56911;SDS011;42800;53.928;27.662;2022-10-18T03:57:55;23.92;;;14.23;;
56911;SDS011;42800;53.928;27.662;2022-10-18T04:00:21;31.00;;;14.98;;
56911;SDS011;42800;53.928;27.662;2022-10-18T04:02:48;32.40;;;16.15;;
56911;SDS011;42800;53.928;27.662;2022-10-18T04:05:14;28.80;;;15.98;;
56911;SDS011;42800;53.928;27.662;2022-10-18T04:07:41;28.65;;;15.57;;
56911;SDS011;42800;53.928;27.662;2022-10-18T04:10:07;29.90;;;15.55;;
56911;SDS011;42800;53.928;27.662;2022-10-18T04:12:33;28.02;;;15.77;;
56911;SDS011;42800;53.928;27.662;2022-10-18T04:15:00;27.95;;;15.63;;
56911;SDS011;42800;53.928;27.662;2022-10-18T04:17:26;26.98;;;14.98;;
56911;SDS011;42800;53.928;27.662;2022-10-18T04:19:53;27.25;;;14.48;;
56911;SDS011;42800;53.928;27.662;2022-10-18T04:22:20;33.42;;;15.43;;
56911;SDS011;42800;53.928;27.662;2022-10-18T04:24:46;27.33;;;13.60;;
56911;SDS011;42800;53.928;27.662;2022-10-18T04:27:12;22.60;;;14.00;;
56911;SDS011;42800;53.928;27.662;2022-10-18T04:29:38;24.77;;;13.85;;
56911;SDS011;42800;53.928;27.662;2022-10-18T04:32:05;24.30;;;14.10;;
56911;SDS011;42800;53.928;27.662;2022-10-18T04:34:31;30.00;;;15.60;;
56911;SDS011;42800;53.928;27.662;2022-10-18T04:36:58;27.63;;;14.90;;
56911;SDS011;42800;53.928;27.662;2022-10-18T04:39:24;26.08;;;15.20;;
56911;SDS011;42800;53.928;27.662;2022-10-18T04:41:50;29.80;;;15.48;;
56911;SDS011;42800;53.928;27.662;2022-10-18T04:44:16;28.85;;;16.55;;
56911;SDS011;42800;53.928;27.662;2022-10-18T04:46:42;30.08;;;15.30;;
56911;SDS011;42800;53.928;27.662;2022-10-18T04:49:09;25.27;;;15.13;;
56911;SDS011;42800;53.928;27.662;2022-10-18T04:51:35;23.95;;;15.57;;
56911;SDS011;42800;53.928;27.662;2022-10-18T04:54:02;28.77;;;14.45;;
56911;SDS011;42800;53.928;27.662;2022-10-18T04:56:28;35.80;;;15.40;;
56911;SDS011;42800;53.928;27.662;2022-10-18T04:58:54;23.55;;;14.38;;
56911;SDS011;42800;53.928;27.662;2022-10-18T05:01:21;29.40;;;15.13;;
56911;SDS011;42800;53.928;27.662;2022-10-18T05:03:50;29.60;;;15.05;;
56911;SDS011;42800;53.928;27.662;2022-10-18T05:06:17;26.45;;;14.13;;
56911;SDS011;42800;53.928;27.662;2022-10-18T05:08:43;25.25;;;14.85;;
56911;SDS011;42800;53.928;27.662;2022-10-18T05:11:10;24.67;;;15.20;;
56911;SDS011;42800;53.928;27.662;2022-10-18T05:13:36;27.73;;;14.63;;
56911;SDS011;42800;53.928;27.662;2022-10-18T05:16:02;27.65;;;14.75;;
56911;SDS011;42800;53.928;27.662;2022-10-18T05:18:29;29.35;;;15.60;;
56911;SDS011;42800;53.928;27.662;2022-10-18T05:20:55;23.98;;;14.50;;
56911;SDS011;42800;53.928;27.662;2022-10-18T05:23:22;25.48;;;15.10;;
56911;SDS011;42800;53.928;27.662;2022-10-18T05:25:48;30.15;;;15.45;;
56911;SDS011;42800;53.928;27.662;2022-10-18T05:28:16;23.23;;;13.63;;
56911;SDS011;42800;53.928;27.662;2022-10-18T05:30:42;32.20;;;14.75;;
56911;SDS011;42800;53.928;27.662;2022-10-18T05:33:08;22.73;;;13.18;;
56911;SDS011;42800;53.928;27.662;2022-10-18T05:35:35;25.55;;;15.20;;
56911;SDS011;42800;53.928;27.662;2022-10-18T05:38:02;22.50;;;13.88;;
56911;SDS011;42800;53.928;27.662;2022-10-18T05:40:28;23.98;;;14.32;;
56911;SDS011;42800;53.928;27.662;2022-10-18T05:42:55;24.92;;;13.45;;
56911;SDS011;42800;53.928;27.662;2022-10-18T05:45:21;24.00;;;14.23;;
56911;SDS011;42800;53.928;27.662;2022-10-18T05:47:48;29.98;;;13.95;;
56911;SDS011;42800;53.928;27.662;2022-10-18T05:50:14;23.25;;;13.52;;
56911;SDS011;42800;53.928;27.662;2022-10-18T05:52:40;23.77;;;13.95;;
56911;SDS011;42800;53.928;27.662;2022-10-18T05:55:06;25.05;;;15.18;;
56911;SDS011;42800;53.928;27.662;2022-10-18T05:57:33;27.27;;;13.30;;
56911;SDS011;42800;53.928;27.662;2022-10-18T05:59:59;27.33;;;13.60;;
56911;SDS011;42800;53.928;27.662;2022-10-18T06:02:26;28.30;;;14.77;;
56911;SDS011;42800;53.928;27.662;2022-10-18T06:04:52;17.77;;;12.63;;
56911;SDS011;42800;53.928;27.662;2022-10-18T06:07:18;26.33;;;13.90;;
56911;SDS011;42800;53.928;27.662;2022-10-18T06:09:45;21.23;;;12.73;;
56911;SDS011;42800;53.928;27.662;2022-10-18T06:12:11;25.67;;;12.82;;
56911;SDS011;42800;53.928;27.662;2022-10-18T06:14:37;28.02;;;13.60;;
56911;SDS011;42800;53.928;27.662;2022-10-18T06:17:03;27.35;;;13.02;;
56911;SDS011;42800;53.928;27.662;2022-10-18T06:19:30;20.80;;;11.95;;
56911;SDS011;42800;53.928;27.662;2022-10-18T06:21:57;25.95;;;14.38;;
56911;SDS011;42800;53.928;27.662;2022-10-18T06:24:23;23.38;;;14.93;;
56911;SDS011;42800;53.928;27.662;2022-10-18T06:26:49;23.58;;;21.05;;
56911;SDS011;42800;53.928;27.662;2022-10-18T06:29:15;23.70;;;12.75;;
56911;SDS011;42800;53.928;27.662;2022-10-18T06:31:41;19.75;;;12.80;;
56911;SDS011;42800;53.928;27.662;2022-10-18T06:34:07;22.45;;;17.63;;
56911;SDS011;42800;53.928;27.662;2022-10-18T06:36:34;30.23;;;13.07;;
56911;SDS011;42800;53.928;27.662;2022-10-18T06:39:00;18.80;;;12.98;;
56911;SDS011;42800;53.928;27.662;2022-10-18T06:41:27;20.75;;;13.73;;
56911;SDS011;42800;53.928;27.662;2022-10-18T06:43:53;25.30;;;12.70;;
56911;SDS011;42800;53.928;27.662;2022-10-18T06:46:21;22.23;;;12.82;;
56911;SDS011;42800;53.928;27.662;2022-10-18T06:48:48;24.55;;;13.48;;
56911;SDS011;42800;53.928;27.662;2022-10-18T06:51:14;26.73;;;13.45;;
56911;SDS011;42800;53.928;27.662;2022-10-18T06:53:41;24.67;;;13.68;;
56911;SDS011;42800;53.928;27.662;2022-10-18T06:56:08;32.65;;;13.70;;
56911;SDS011;42800;53.928;27.662;2022-10-18T06:58:36;22.98;;;12.80;;
56911;SDS011;42800;53.928;27.662;2022-10-18T07:01:06;25.10;;;12.80;;
56911;SDS011;42800;53.928;27.662;2022-10-18T07:03:33;43.33;;;16.10;;
56911;SDS011;42800;53.928;27.662;2022-10-18T07:05:59;42.72;;;16.45;;
56911;SDS011;42800;53.928;27.662;2022-10-18T07:08:26;57.42;;;22.00;;
56911;SDS011;42800;53.928;27.662;2022-10-18T07:10:53;32.75;;;23.77;;
56911;SDS011;42800;53.928;27.662;2022-10-18T07:13:20;27.05;;;13.93;;
56911;SDS011;42800;53.928;27.662;2022-10-18T07:15:47;29.95;;;14.27;;
56911;SDS011;42800;53.928;27.662;2022-10-18T07:18:13;37.60;;;16.98;;
56911;SDS011;42800;53.928;27.662;2022-10-18T07:20:39;35.25;;;17.00;;
56911;SDS011;42800;53.928;27.662;2022-10-18T07:23:06;24.48;;;18.85;;
56911;SDS011;42800;53.928;27.662;2022-10-18T07:25:33;29.92;;;14.93;;
56911;SDS011;42800;53.928;27.662;2022-10-18T07:28:00;20.77;;;11.43;;
56911;SDS011;42800;53.928;27.662;2022-10-18T07:30:26;64.40;;;23.48;;
56911;SDS011;42800;53.928;27.662;2022-10-18T07:32:53;18.65;;;11.80;;
56911;SDS011;42800;53.928;27.662;2022-10-18T07:35:19;21.35;;;17.33;;
56911;SDS011;42800;53.928;27.662;2022-10-18T07:37:45;28.10;;;14.10;;
56911;SDS011;42800;53.928;27.662;2022-10-18T07:40:11;22.10;;;13.90;;
56911;SDS011;42800;53.928;27.662;2022-10-18T07:42:38;28.02;;;13.73;;
56911;SDS011;42800;53.928;27.662;2022-10-18T07:45:05;28.33;;;12.68;;
56911;SDS011;42800;53.928;27.662;2022-10-18T07:47:31;26.35;;;13.15;;
56911;SDS011;42800;53.928;27.662;2022-10-18T07:49:58;28.85;;;15.88;;
56911;SDS011;42800;53.928;27.662;2022-10-18T07:52:24;80.82;;;18.92;;
56911;SDS011;42800;53.928;27.662;2022-10-18T07:54:50;24.77;;;13.35;;
56911;SDS011;42800;53.928;27.662;2022-10-18T07:57:16;22.15;;;12.35;;
56911;SDS011;42800;53.928;27.662;2022-10-18T07:59:42;40.08;;;15.68;;
56911;SDS011;42800;53.928;27.662;2022-10-18T08:02:12;26.98;;;11.90;;
56911;SDS011;42800;53.928;27.662;2022-10-18T08:04:39;17.38;;;11.10;;
56911;SDS011;42800;53.928;27.662;2022-10-18T08:07:05;24.27;;;11.40;;
56911;SDS011;42800;53.928;27.662;2022-10-18T08:09:31;26.83;;;11.95;;
56911;SDS011;42800;53.928;27.662;2022-10-18T08:11:58;19.00;;;11.27;;
56911;SDS011;42800;53.928;27.662;2022-10-18T08:14:25;27.73;;;11.30;;
56911;SDS011;42800;53.928;27.662;2022-10-18T08:16:51;27.30;;;13.60;;
56911;SDS011;42800;53.928;27.662;2022-10-18T08:19:18;27.17;;;13.88;;
56911;SDS011;42800;53.928;27.662;2022-10-18T08:21:44;14.80;;;10.90;;
56911;SDS011;42800;53.928;27.662;2022-10-18T08:24:10;18.33;;;11.40;;
56911;SDS011;42800;53.928;27.662;2022-10-18T08:26:36;20.48;;;11.30;;
56911;SDS011;42800;53.928;27.662;2022-10-18T08:29:03;20.13;;;10.77;;
56911;SDS011;42800;53.928;27.662;2022-10-18T08:31:29;20.00;;;12.38;;
56911;SDS011;42800;53.928;27.662;2022-10-18T08:33:55;22.50;;;11.57;;
56911;SDS011;42800;53.928;27.662;2022-10-18T08:36:23;20.27;;;11.70;;
56911;SDS011;42800;53.928;27.662;2022-10-18T08:38:49;17.05;;;10.07;;
56911;SDS011;42800;53.928;27.662;2022-10-18T08:41:22;30.13;;;16.88;;
56911;SDS011;42800;53.928;27.662;2022-10-18T08:44:06;17.90;;;10.13;;
56911;SDS011;42800;53.928;27.662;2022-10-18T08:46:40;20.13;;;9.63;;
56911;SDS011;42800;53.928;27.662;2022-10-18T08:49:09;31.98;;;11.00;;
56911;SDS011;42800;53.928;27.662;2022-10-18T08:51:47;17.23;;;9.90;;
56911;SDS011;42800;53.928;27.662;2022-10-18T08:54:16;14.93;;;8.85;;
56911;SDS011;42800;53.928;27.662;2022-10-18T08:56:51;19.27;;;10.00;;
56911;SDS011;42800;53.928;27.662;2022-10-18T08:59:22;17.23;;;10.60;;
56911;SDS011;42800;53.928;27.662;2022-10-18T09:01:51;19.83;;;9.93;;
56911;SDS011;42800;53.928;27.662;2022-10-18T09:04:31;16.63;;;8.50;;
56911;SDS011;42800;53.928;27.662;2022-10-18T09:07:14;15.05;;;9.85;;
56911;SDS011;42800;53.928;27.662;2022-10-18T09:09:50;17.65;;;9.27;;
56911;SDS011;42800;53.928;27.662;2022-10-18T09:12:27;15.35;;;8.60;;
56911;SDS011;42800;53.928;27.662;2022-10-18T09:15:05;21.05;;;11.95;;
56911;SDS011;42800;53.928;27.662;2022-10-18T09:17:39;26.13;;;9.18;;
56911;SDS011;42800;53.928;27.662;2022-10-18T09:20:47;21.48;;;9.32;;
56911;SDS011;42800;53.928;27.662;2022-10-18T09:23:18;15.30;;;12.02;;
56911;SDS011;42800;53.928;27.662;2022-10-18T09:25:47;88.95;;;14.73;;
56911;SDS011;42800;53.928;27.662;2022-10-18T09:28:20;24.13;;;9.05;;
56911;SDS011;42800;53.928;27.662;2022-10-18T09:30:56;65.85;;;12.13;;
56911;SDS011;42800;53.928;27.662;2022-10-18T09:33:35;42.22;;;9.40;;
56911;SDS011;42800;53.928;27.662;2022-10-18T09:36:07;47.08;;;11.32;;
56911;SDS011;42800;53.928;27.662;2022-10-18T09:38:39;20.45;;;9.02;;
56911;SDS011;42800;53.928;27.662;2022-10-18T09:41:09;26.88;;;10.15;;
56911;SDS011;42800;53.928;27.662;2022-10-18T09:43:45;20.52;;;8.68;;
56911;SDS011;42800;53.928;27.662;2022-10-18T09:46:15;12.82;;;8.57;;
56911;SDS011;42800;53.928;27.662;2022-10-18T09:48:44;16.05;;;8.30;;
56911;SDS011;42800;53.928;27.662;2022-10-18T09:51:14;21.13;;;9.93;;
56911;SDS011;42800;53.928;27.662;2022-10-18T09:53:50;28.27;;;10.27;;
56911;SDS011;42800;53.928;27.662;2022-10-18T09:56:32;11.73;;;7.82;;
56911;SDS011;42800;53.928;27.662;2022-10-18T09:59:02;19.40;;;7.20;;
56911;SDS011;42800;53.928;27.662;2022-10-18T10:01:29;21.75;;;8.00;;
56911;SDS011;42800;53.928;27.662;2022-10-18T10:03:57;13.52;;;9.40;;
56911;SDS011;42800;53.928;27.662;2022-10-18T10:06:24;54.42;;;16.10;;
56911;SDS011;42800;53.928;27.662;2022-10-18T10:08:59;19.08;;;9.88;;
56911;SDS011;42800;53.928;27.662;2022-10-18T10:11:31;22.33;;;9.07;;
56911;SDS011;42800;53.928;27.662;2022-10-18T10:14:07;18.25;;;8.80;;
56911;SDS011;42800;53.928;27.662;2022-10-18T10:16:41;37.17;;;11.00;;
56911;SDS011;42800;53.928;27.662;2022-10-18T10:19:16;12.98;;;8.00;;
56911;SDS011;42800;53.928;27.662;2022-10-18T10:21:44;48.30;;;10.60;;
56911;SDS011;42800;53.928;27.662;2022-10-18T10:24:16;21.65;;;9.25;;
56911;SDS011;42800;53.928;27.662;2022-10-18T10:26:46;16.58;;;8.68;;
56911;SDS011;42800;53.928;27.662;2022-10-18T10:32:16;23.50;;;8.38;;
56911;SDS011;42800;53.928;27.662;2022-10-18T10:34:44;15.98;;;10.98;;
56911;SDS011;42800;53.928;27.662;2022-10-18T10:37:20;65.20;;;10.25;;
56911;SDS011;42800;53.928;27.662;2022-10-18T10:40:03;16.88;;;7.28;;
56911;SDS011;42800;53.928;27.662;2022-10-18T10:42:54;25.35;;;7.35;;
56911;SDS011;42800;53.928;27.662;2022-10-18T10:45:36;9.25;;;6.53;;
56911;SDS011;42800;53.928;27.662;2022-10-18T10:48:10;13.15;;;7.03;;
56911;SDS011;42800;53.928;27.662;2022-10-18T10:50:48;14.27;;;6.80;;
56911;SDS011;42800;53.928;27.662;2022-10-18T10:56:14;12.45;;;7.03;;
56911;SDS011;42800;53.928;27.662;2022-10-18T10:58:43;38.40;;;9.35;;
56911;SDS011;42800;53.928;27.662;2022-10-18T11:01:19;17.20;;;5.65;;
56911;SDS011;42800;53.928;27.662;2022-10-18T11:03:49;20.65;;;8.32;;
56911;SDS011;42800;53.928;27.662;2022-10-18T11:06:27;15.23;;;7.97;;
56911;SDS011;42800;53.928;27.662;2022-10-18T11:09:22;12.10;;;7.35;;
56911;SDS011;42800;53.928;27.662;2022-10-18T11:11:56;10.40;;;6.57;;
56911;SDS011;42800;53.928;27.662;2022-10-18T11:14:28;14.57;;;5.97;;
56911;SDS011;42800;53.928;27.662;2022-10-18T11:17:04;31.63;;;11.18;;
56911;SDS011;42800;53.928;27.662;2022-10-18T11:19:39;15.07;;;6.57;;
56911;SDS011;42800;53.928;27.662;2022-10-18T11:22:15;17.02;;;8.57;;
56911;SDS011;42800;53.928;27.662;2022-10-18T11:24:45;63.42;;;13.15;;
56911;SDS011;42800;53.928;27.662;2022-10-18T11:27:14;15.63;;;8.65;;
56911;SDS011;42800;53.928;27.662;2022-10-18T11:32:44;66.78;;;9.30;;
56911;SDS011;42800;53.928;27.662;2022-10-18T11:35:24;20.38;;;7.00;;
56911;SDS011;42800;53.928;27.662;2022-10-18T11:38:02;13.60;;;6.88;;
56911;SDS011;42800;53.928;27.662;2022-10-18T11:40:41;15.30;;;8.23;;
56911;SDS011;42800;53.928;27.662;2022-10-18T11:43:15;16.15;;;8.73;;
56911;SDS011;42800;53.928;27.662;2022-10-18T11:48:24;65.15;;;9.80;;
56911;SDS011;42800;53.928;27.662;2022-10-18T11:51:06;17.75;;;8.80;;
56911;SDS011;42800;53.928;27.662;2022-10-18T11:53:41;14.43;;;6.72;;
56911;SDS011;42800;53.928;27.662;2022-10-18T11:56:26;11.38;;;8.43;;
56911;SDS011;42800;53.928;27.662;2022-10-18T11:59:02;16.05;;;6.35;;
56911;SDS011;42800;53.928;27.662;2022-10-18T12:04:14;10.82;;;6.82;;
56911;SDS011;42800;53.928;27.662;2022-10-18T12:06:44;12.77;;;5.35;;
56911;SDS011;42800;53.928;27.662;2022-10-18T12:09:16;21.33;;;9.88;;
56911;SDS011;42800;53.928;27.662;2022-10-18T12:11:50;11.70;;;8.38;;
56911;SDS011;42800;53.928;27.662;2022-10-18T12:14:23;16.75;;;7.88;;
56911;SDS011;42800;53.928;27.662;2022-10-18T12:16:53;17.20;;;6.25;;
56911;SDS011;42800;53.928;27.662;2022-10-18T12:19:24;13.15;;;6.07;;
56911;SDS011;42800;53.928;27.662;2022-10-18T12:21:53;12.68;;;5.75;;
56911;SDS011;42800;53.928;27.662;2022-10-18T12:24:21;12.52;;;8.65;;
56911;SDS011;42800;53.928;27.662;2022-10-18T12:26:52;10.93;;;6.95;;
56911;SDS011;42800;53.928;27.662;2022-10-18T12:29:24;8.32;;;5.18;;
56911;SDS011;42800;53.928;27.662;2022-10-18T12:31:56;12.88;;;6.40;;
56911;SDS011;42800;53.928;27.662;2022-10-18T12:34:31;11.88;;;6.78;;
56911;SDS011;42800;53.928;27.662;2022-10-18T12:37:11;10.63;;;6.00;;
56911;SDS011;42800;53.928;27.662;2022-10-18T12:39:58;8.35;;;5.85;;
56911;SDS011;42800;53.928;27.662;2022-10-18T12:42:28;8.80;;;5.40;;
56911;SDS011;42800;53.928;27.662;2022-10-18T12:45:00;12.50;;;10.35;;
56911;SDS011;42800;53.928;27.662;2022-10-18T12:47:30;15.13;;;7.07;;
56911;SDS011;42800;53.928;27.662;2022-10-18T12:49:57;9.35;;;7.85;;
56911;SDS011;42800;53.928;27.662;2022-10-18T12:52:25;28.05;;;6.47;;
56911;SDS011;42800;53.928;27.662;2022-10-18T12:55:00;9.75;;;5.72;;
56911;SDS011;42800;53.928;27.662;2022-10-18T12:58:01;14.70;;;6.10;;
56911;SDS011;42800;53.928;27.662;2022-10-18T13:03:49;37.35;;;9.73;;
56911;SDS011;42800;53.928;27.662;2022-10-18T13:06:18;15.52;;;8.05;;
56911;SDS011;42800;53.928;27.662;2022-10-18T13:08:46;9.52;;;6.03;;
56911;SDS011;42800;53.928;27.662;2022-10-18T13:11:33;9.20;;;6.75;;
56911;SDS011;42800;53.928;27.662;2022-10-18T13:16:55;78.35;;;10.48;;
56911;SDS011;42800;53.928;27.662;2022-10-18T13:19:27;20.63;;;5.97;;
56911;SDS011;42800;53.928;27.662;2022-10-18T13:22:12;9.85;;;4.93;;
56911;SDS011;42800;53.928;27.662;2022-10-18T13:24:53;8.48;;;4.90;;
56911;SDS011;42800;53.928;27.662;2022-10-18T13:27:30;13.23;;;5.75;;
56911;SDS011;42800;53.928;27.662;2022-10-18T13:33:16;9.80;;;5.20;;
56911;SDS011;42800;53.928;27.662;2022-10-18T13:35:52;9.73;;;4.80;;
56911;SDS011;42800;53.928;27.662;2022-10-18T13:41:11;9.90;;;4.45;;
56911;SDS011;42800;53.928;27.662;2022-10-18T13:44:02;6.03;;;5.10;;
56911;SDS011;42800;53.928;27.662;2022-10-18T13:49:50;11.80;;;7.90;;
56911;SDS011;42800;53.928;27.662;2022-10-18T13:52:28;12.80;;;5.13;;
56911;SDS011;42800;53.928;27.662;2022-10-18T13:55:14;14.63;;;5.93;;
56911;SDS011;42800;53.928;27.662;2022-10-18T13:57:51;16.30;;;6.30;;
56911;SDS011;42800;53.928;27.662;2022-10-18T14:00:29;9.77;;;5.53;;
56911;SDS011;42800;53.928;27.662;2022-10-18T14:06:06;8.00;;;4.57;;
56911;SDS011;42800;53.928;27.662;2022-10-18T14:08:36;14.85;;;7.20;;
56911;SDS011;42800;53.928;27.662;2022-10-18T14:11:10;10.48;;;5.47;;
56911;SDS011;42800;53.928;27.662;2022-10-18T14:13:44;11.05;;;5.85;;
56911;SDS011;42800;53.928;27.662;2022-10-18T14:16:20;17.65;;;5.63;;
56911;SDS011;42800;53.928;27.662;2022-10-18T14:18:55;8.25;;;5.05;;
56911;SDS011;42800;53.928;27.662;2022-10-18T14:21:32;9.75;;;5.28;;
56911;SDS011;42800;53.928;27.662;2022-10-18T14:24:06;9.90;;;5.17;;
56911;SDS011;42800;53.928;27.662;2022-10-18T14:26:39;7.40;;;4.50;;
56911;SDS011;42800;53.928;27.662;2022-10-18T14:29:06;10.07;;;5.57;;
56911;SDS011;42800;53.928;27.662;2022-10-18T14:31:41;8.60;;;5.45;;
56911;SDS011;42800;53.928;27.662;2022-10-18T14:34:14;16.92;;;7.18;;
56911;SDS011;42800;53.928;27.662;2022-10-18T14:36:41;15.70;;;5.63;;
56911;SDS011;42800;53.928;27.662;2022-10-18T14:39:16;8.27;;;5.50;;
56911;SDS011;42800;53.928;27.662;2022-10-18T14:41:48;11.00;;;5.72;;
56911;SDS011;42800;53.928;27.662;2022-10-18T14:44:17;8.07;;;5.72;;
56911;SDS011;42800;53.928;27.662;2022-10-18T14:46:46;10.48;;;5.85;;
56911;SDS011;42800;53.928;27.662;2022-10-18T14:49:13;12.98;;;6.05;;
56911;SDS011;42800;53.928;27.662;2022-10-18T14:51:42;9.35;;;5.40;;
56911;SDS011;42800;53.928;27.662;2022-10-18T14:54:12;12.23;;;10.02;;
56911;SDS011;42800;53.928;27.662;2022-10-18T14:56:40;8.93;;;5.93;;
56911;SDS011;42800;53.928;27.662;2022-10-18T14:59:10;10.88;;;5.15;;
56911;SDS011;42800;53.928;27.662;2022-10-18T15:01:41;13.32;;;8.25;;
56911;SDS011;42800;53.928;27.662;2022-10-18T15:04:17;15.68;;;6.70;;
56911;SDS011;42800;53.928;27.662;2022-10-18T15:06:44;11.40;;;6.28;;
56911;SDS011;42800;53.928;27.662;2022-10-18T15:09:10;10.20;;;6.15;;